sensor_id;sensor_type;location;lat;lon;timestamp;temperature;humidity
3051;DHT22;1535;51.098;6.414;2022-08-20T00:00:54;19.20;99.90
3051;DHT22;1535;51.098;6.414;2022-08-20T00:03:23;19.20;99.90
3051;DHT22;1535;51.098;6.414;2022-08-20T00:05:55;19.20;99.90
3051;DHT22;1535;51.098;6.414;2022-08-20T00:08:22;19.20;99.90
3051;DHT22;1535;51.098;6.414;2022-08-20T00:10:52;19.20;99.90
3051;DHT22;1535;51.098;6.414;2022-08-20T00:13:23;19.10;99.90
3051;DHT22;1535;51.098;6.414;2022-08-20T00:15:51;19.10;99.90
3051;DHT22;1535;51.098;6.414;2022-08-20T00:18:19;19.10;99.90
3051;DHT22;1535;51.098;6.414;2022-08-20T00:20:48;19.10;99.90
3051;DHT22;1535;51.098;6.414;2022-08-20T00:23:16;19.10;99.90
3051;DHT22;1535;51.098;6.414;2022-08-20T00:25:46;19.00;99.90
3051;DHT22;1535;51.098;6.414;2022-08-20T00:28:15;18.90;99.90
3051;DHT22;1535;51.098;6.414;2022-08-20T00:30:44;18.90;99.90
3051;DHT22;1535;51.098;6.414;2022-08-20T00:33:14;18.90;99.90
3051;DHT22;1535;51.098;6.414;2022-08-20T00:35:44;18.90;99.90
3051;DHT22;1535;51.098;6.414;2022-08-20T00:38:12;18.90;99.90
3051;DHT22;1535;51.098;6.414;2022-08-20T00:40:41;18.90;99.90
3051;DHT22;1535;51.098;6.414;2022-08-20T00:43:30;19.00;99.90
3051;DHT22;1535;51.098;6.414;2022-08-20T00:45:59;18.90;99.90
3051;DHT22;1535;51.098;6.414;2022-08-20T00:48:28;19.00;99.90
3051;DHT22;1535;51.098;6.414;2022-08-20T00:51:01;19.00;99.90
3051;DHT22;1535;51.098;6.414;2022-08-20T00:53:28;19.00;99.90
3051;DHT22;1535;51.098;6.414;2022-08-20T00:55:56;19.00;99.90
3051;DHT22;1535;51.098;6.414;2022-08-20T00:58:24;19.00;99.90
3051;DHT22;1535;51.098;6.414;2022-08-20T01:00:53;19.10;99.90
3051;DHT22;1535;51.098;6.414;2022-08-20T01:03:22;19.10;99.90
3051;DHT22;1535;51.098;6.414;2022-08-20T01:05:52;19.00;99.90
3051;DHT22;1535;51.098;6.414;2022-08-20T01:08:20;18.90;99.90
3051;DHT22;1535;51.098;6.414;2022-08-20T01:10:50;18.90;99.90
3051;DHT22;1535;51.098;6.414;2022-08-20T01:13:34;18.90;99.90
3051;DHT22;1535;51.098;6.414;2022-08-20T01:16:05;18.90;99.90
3051;DHT22;1535;51.098;6.414;2022-08-20T01:18:35;18.80;99.90
3051;DHT22;1535;51.098;6.414;2022-08-20T01:21:05;18.80;99.90
3051;DHT22;1535;51.098;6.414;2022-08-20T01:23:39;18.80;99.90
3051;DHT22;1535;51.098;6.414;2022-08-20T01:26:11;18.80;99.90
3051;DHT22;1535;51.098;6.414;2022-08-20T01:28:42;18.70;99.90
3051;DHT22;1535;51.098;6.414;2022-08-20T01:31:12;18.80;99.90
3051;DHT22;1535;51.098;6.414;2022-08-20T01:33:39;18.80;99.90
3051;DHT22;1535;51.098;6.414;2022-08-20T01:36:07;18.80;99.90
3051;DHT22;1535;51.098;6.414;2022-08-20T01:38:35;18.80;99.90
3051;DHT22;1535;51.098;6.414;2022-08-20T01:41:21;18.70;99.90
3051;DHT22;1535;51.098;6.414;2022-08-20T01:43:52;18.70;99.90
3051;DHT22;1535;51.098;6.414;2022-08-20T01:46:22;18.70;99.90
3051;DHT22;1535;51.098;6.414;2022-08-20T01:48:52;18.60;99.90
3051;DHT22;1535;51.098;6.414;2022-08-20T01:51:28;18.60;99.90
3051;DHT22;1535;51.098;6.414;2022-08-20T01:53:56;18.60;99.90
3051;DHT22;1535;51.098;6.414;2022-08-20T01:56:27;18.60;99.90
3051;DHT22;1535;51.098;6.414;2022-08-20T01:58:57;18.60;99.90
3051;DHT22;1535;51.098;6.414;2022-08-20T02:01:27;18.60;99.90
3051;DHT22;1535;51.098;6.414;2022-08-20T02:03:58;18.60;99.90
3051;DHT22;1535;51.098;6.414;2022-08-20T02:06:29;18.60;99.90
3051;DHT22;1535;51.098;6.414;2022-08-20T02:08:58;18.60;99.90
3051;DHT22;1535;51.098;6.414;2022-08-20T02:11:28;18.60;99.90
3051;DHT22;1535;51.098;6.414;2022-08-20T02:13:56;18.60;99.90
3051;DHT22;1535;51.098;6.414;2022-08-20T02:16:25;18.60;99.90
3051;DHT22;1535;51.098;6.414;2022-08-20T02:18:56;18.70;99.90
3051;DHT22;1535;51.098;6.414;2022-08-20T02:21:26;18.80;99.90
3051;DHT22;1535;51.098;6.414;2022-08-20T02:23:54;18.80;99.90
3051;DHT22;1535;51.098;6.414;2022-08-20T02:26:22;18.90;99.90
3051;DHT22;1535;51.098;6.414;2022-08-20T02:28:52;19.00;99.90
3051;DHT22;1535;51.098;6.414;2022-08-20T02:31:22;19.00;99.90
3051;DHT22;1535;51.098;6.414;2022-08-20T02:33:49;19.10;99.90
3051;DHT22;1535;51.098;6.414;2022-08-20T02:36:17;19.10;99.90
3051;DHT22;1535;51.098;6.414;2022-08-20T02:38:46;19.00;99.90
3051;DHT22;1535;51.098;6.414;2022-08-20T02:41:13;19.00;99.90
3051;DHT22;1535;51.098;6.414;2022-08-20T02:43:41;19.10;99.90
3051;DHT22;1535;51.098;6.414;2022-08-20T02:46:10;19.10;99.90
3051;DHT22;1535;51.098;6.414;2022-08-20T02:48:37;19.20;99.90
3051;DHT22;1535;51.098;6.414;2022-08-20T02:51:05;19.30;99.90
3051;DHT22;1535;51.098;6.414;2022-08-20T02:53:36;19.20;99.90
3051;DHT22;1535;51.098;6.414;2022-08-20T02:56:04;19.20;99.90
3051;DHT22;1535;51.098;6.414;2022-08-20T02:58:32;19.10;99.90
3051;DHT22;1535;51.098;6.414;2022-08-20T03:01:00;19.10;99.90
3051;DHT22;1535;51.098;6.414;2022-08-20T03:03:28;19.00;99.90
3051;DHT22;1535;51.098;6.414;2022-08-20T03:05:57;19.10;99.90
3051;DHT22;1535;51.098;6.414;2022-08-20T03:08:24;19.00;99.90
3051;DHT22;1535;51.098;6.414;2022-08-20T03:10:52;19.00;99.90
3051;DHT22;1535;51.098;6.414;2022-08-20T03:13:19;19.10;99.90
3051;DHT22;1535;51.098;6.414;2022-08-20T03:15:50;19.20;99.90
3051;DHT22;1535;51.098;6.414;2022-08-20T03:18:18;19.20;99.90
3051;DHT22;1535;51.098;6.414;2022-08-20T03:20:47;19.30;99.90
3051;DHT22;1535;51.098;6.414;2022-08-20T03:23:15;19.40;99.90
3051;DHT22;1535;51.098;6.414;2022-08-20T03:25:42;19.30;99.90
3051;DHT22;1535;51.098;6.414;2022-08-20T03:28:12;19.30;99.90
3051;DHT22;1535;51.098;6.414;2022-08-20T03:30:39;19.40;99.90
3051;DHT22;1535;51.098;6.414;2022-08-20T03:33:07;19.30;99.90
3051;DHT22;1535;51.098;6.414;2022-08-20T03:35:35;19.30;99.90
3051;DHT22;1535;51.098;6.414;2022-08-20T03:38:07;19.30;99.90
3051;DHT22;1535;51.098;6.414;2022-08-20T03:40:36;19.30;99.90
3051;DHT22;1535;51.098;6.414;2022-08-20T03:43:05;19.30;99.90
3051;DHT22;1535;51.098;6.414;2022-08-20T03:45:35;19.20;99.90
3051;DHT22;1535;51.098;6.414;2022-08-20T03:48:04;19.20;99.90
3051;DHT22;1535;51.098;6.414;2022-08-20T03:50:32;19.20;99.90
3051;DHT22;1535;51.098;6.414;2022-08-20T03:53:00;19.20;99.90
3051;DHT22;1535;51.098;6.414;2022-08-20T03:55:30;19.20;99.90
3051;DHT22;1535;51.098;6.414;2022-08-20T03:58:00;19.20;99.90
3051;DHT22;1535;51.098;6.414;2022-08-20T04:00:30;19.10;99.90
3051;DHT22;1535;51.098;6.414;2022-08-20T04:02:57;19.00;99.90
3051;DHT22;1535;51.098;6.414;2022-08-20T04:05:26;19.00;99.90
3051;DHT22;1535;51.098;6.414;2022-08-20T04:07:54;19.00;99.90
3051;DHT22;1535;51.098;6.414;2022-08-20T04:10:21;19.10;99.90
3051;DHT22;1535;51.098;6.414;2022-08-20T04:12:50;19.00;99.90
3051;DHT22;1535;51.098;6.414;2022-08-20T04:15:17;19.00;99.90
3051;DHT22;1535;51.098;6.414;2022-08-20T04:17:46;19.00;99.90
3051;DHT22;1535;51.098;6.414;2022-08-20T04:20:16;19.00;99.90
3051;DHT22;1535;51.098;6.414;2022-08-20T04:22:43;18.90;99.90
3051;DHT22;1535;51.098;6.414;2022-08-20T04:25:12;19.00;99.90
3051;DHT22;1535;51.098;6.414;2022-08-20T04:27:39;19.00;99.90
3051;DHT22;1535;51.098;6.414;2022-08-20T04:30:10;19.10;99.90
3051;DHT22;1535;51.098;6.414;2022-08-20T04:32:39;19.00;99.90
3051;DHT22;1535;51.098;6.414;2022-08-20T04:35:07;18.90;99.90
3051;DHT22;1535;51.098;6.414;2022-08-20T04:37:36;18.90;99.90
3051;DHT22;1535;51.098;6.414;2022-08-20T04:40:05;18.90;99.90
3051;DHT22;1535;51.098;6.414;2022-08-20T04:42:50;19.00;99.90
3051;DHT22;1535;51.098;6.414;2022-08-20T04:45:19;18.90;99.90
3051;DHT22;1535;51.098;6.414;2022-08-20T04:47:46;18.90;99.90
3051;DHT22;1535;51.098;6.414;2022-08-20T04:50:13;18.90;99.90
3051;DHT22;1535;51.098;6.414;2022-08-20T04:52:40;18.90;99.90
3051;DHT22;1535;51.098;6.414;2022-08-20T04:55:08;18.90;99.90
3051;DHT22;1535;51.098;6.414;2022-08-20T04:57:35;18.80;99.90
3051;DHT22;1535;51.098;6.414;2022-08-20T05:00:05;18.90;99.90
3051;DHT22;1535;51.098;6.414;2022-08-20T05:02:34;18.90;99.90
3051;DHT22;1535;51.098;6.414;2022-08-20T05:05:03;18.90;99.90
3051;DHT22;1535;51.098;6.414;2022-08-20T05:07:36;19.00;99.90
3051;DHT22;1535;51.098;6.414;2022-08-20T05:10:05;18.90;99.90
3051;DHT22;1535;51.098;6.414;2022-08-20T05:12:32;18.70;99.90
3051;DHT22;1535;51.098;6.414;2022-08-20T05:14:59;18.70;99.90
3051;DHT22;1535;51.098;6.414;2022-08-20T05:17:26;18.70;99.90
3051;DHT22;1535;51.098;6.414;2022-08-20T05:19:55;18.70;99.90
3051;DHT22;1535;51.098;6.414;2022-08-20T05:22:23;18.70;99.90
3051;DHT22;1535;51.098;6.414;2022-08-20T05:24:50;18.70;99.90
3051;DHT22;1535;51.098;6.414;2022-08-20T05:27:18;18.70;99.90
3051;DHT22;1535;51.098;6.414;2022-08-20T05:29:45;18.70;99.90
3051;DHT22;1535;51.098;6.414;2022-08-20T05:32:12;18.70;99.90
3051;DHT22;1535;51.098;6.414;2022-08-20T05:34:39;18.70;99.90
3051;DHT22;1535;51.098;6.414;2022-08-20T05:37:09;18.70;99.90
3051;DHT22;1535;51.098;6.414;2022-08-20T05:39:35;18.70;99.90
3051;DHT22;1535;51.098;6.414;2022-08-20T05:42:02;18.70;99.90
3051;DHT22;1535;51.098;6.414;2022-08-20T05:44:29;18.70;99.90
3051;DHT22;1535;51.098;6.414;2022-08-20T05:46:56;18.70;99.90
3051;DHT22;1535;51.098;6.414;2022-08-20T05:49:23;18.60;99.90
3051;DHT22;1535;51.098;6.414;2022-08-20T05:51:50;18.60;99.90
3051;DHT22;1535;51.098;6.414;2022-08-20T05:54:18;18.70;99.90
3051;DHT22;1535;51.098;6.414;2022-08-20T05:56:45;18.70;99.90
3051;DHT22;1535;51.098;6.414;2022-08-20T05:59:12;18.60;99.90
3051;DHT22;1535;51.098;6.414;2022-08-20T06:01:39;18.50;99.90
3051;DHT22;1535;51.098;6.414;2022-08-20T06:04:08;18.40;99.90
3051;DHT22;1535;51.098;6.414;2022-08-20T06:06:50;18.40;99.90
3051;DHT22;1535;51.098;6.414;2022-08-20T06:09:20;18.50;99.90
3051;DHT22;1535;51.098;6.414;2022-08-20T06:11:48;18.50;99.90
3051;DHT22;1535;51.098;6.414;2022-08-20T06:14:14;18.50;99.90
3051;DHT22;1535;51.098;6.414;2022-08-20T06:16:42;18.50;99.90
3051;DHT22;1535;51.098;6.414;2022-08-20T06:19:10;18.60;99.90
3051;DHT22;1535;51.098;6.414;2022-08-20T06:21:37;18.50;99.90
3051;DHT22;1535;51.098;6.414;2022-08-20T06:24:05;18.60;99.90
3051;DHT22;1535;51.098;6.414;2022-08-20T06:26:34;18.60;99.90
3051;DHT22;1535;51.098;6.414;2022-08-20T06:29:01;18.60;99.90
3051;DHT22;1535;51.098;6.414;2022-08-20T06:31:29;18.60;99.90
3051;DHT22;1535;51.098;6.414;2022-08-20T06:33:56;18.60;99.90
3051;DHT22;1535;51.098;6.414;2022-08-20T06:36:23;18.60;99.90
3051;DHT22;1535;51.098;6.414;2022-08-20T06:38:51;18.60;99.90
3051;DHT22;1535;51.098;6.414;2022-08-20T06:41:21;18.70;99.90
3051;DHT22;1535;51.098;6.414;2022-08-20T06:43:49;18.70;99.90
3051;DHT22;1535;51.098;6.414;2022-08-20T06:46:19;18.70;99.90
3051;DHT22;1535;51.098;6.414;2022-08-20T06:48:49;18.60;99.90
3051;DHT22;1535;51.098;6.414;2022-08-20T06:51:16;18.50;99.90
3051;DHT22;1535;51.098;6.414;2022-08-20T06:53:43;18.50;99.90
3051;DHT22;1535;51.098;6.414;2022-08-20T06:56:10;18.30;99.90
3051;DHT22;1535;51.098;6.414;2022-08-20T06:58:37;18.40;99.90
3051;DHT22;1535;51.098;6.414;2022-08-20T07:01:06;18.50;99.90
3051;DHT22;1535;51.098;6.414;2022-08-20T07:03:33;18.50;99.90
3051;DHT22;1535;51.098;6.414;2022-08-20T07:06:03;18.60;99.90
3051;DHT22;1535;51.098;6.414;2022-08-20T07:08:30;18.50;99.90
3051;DHT22;1535;51.098;6.414;2022-08-20T07:10:57;18.40;99.90
3051;DHT22;1535;51.098;6.414;2022-08-20T07:13:24;18.40;99.90
3051;DHT22;1535;51.098;6.414;2022-08-20T07:15:51;18.40;99.90
3051;DHT22;1535;51.098;6.414;2022-08-20T07:18:19;18.50;99.90
3051;DHT22;1535;51.098;6.414;2022-08-20T07:20:47;18.40;99.90
3051;DHT22;1535;51.098;6.414;2022-08-20T07:23:14;18.50;99.90
3051;DHT22;1535;51.098;6.414;2022-08-20T07:25:42;18.40;99.90
3051;DHT22;1535;51.098;6.414;2022-08-20T07:28:14;18.50;99.90
3051;DHT22;1535;51.098;6.414;2022-08-20T07:30:41;18.60;99.90
3051;DHT22;1535;51.098;6.414;2022-08-20T07:33:28;18.60;99.90
3051;DHT22;1535;51.098;6.414;2022-08-20T07:35:56;18.60;99.90
3051;DHT22;1535;51.098;6.414;2022-08-20T07:38:24;18.60;99.90
3051;DHT22;1535;51.098;6.414;2022-08-20T07:40:52;18.50;99.90
3051;DHT22;1535;51.098;6.414;2022-08-20T07:43:19;18.50;99.90
3051;DHT22;1535;51.098;6.414;2022-08-20T07:45:47;18.50;99.90
3051;DHT22;1535;51.098;6.414;2022-08-20T07:48:14;18.70;99.90
3051;DHT22;1535;51.098;6.414;2022-08-20T07:50:42;18.70;99.90
3051;DHT22;1535;51.098;6.414;2022-08-20T07:53:09;18.60;99.90
3051;DHT22;1535;51.098;6.414;2022-08-20T07:55:37;18.70;99.90
3051;DHT22;1535;51.098;6.414;2022-08-20T07:58:09;18.80;99.90
3051;DHT22;1535;51.098;6.414;2022-08-20T08:00:36;19.10;99.90
3051;DHT22;1535;51.098;6.414;2022-08-20T08:03:03;19.30;99.90
3051;DHT22;1535;51.098;6.414;2022-08-20T08:05:31;19.20;99.90
3051;DHT22;1535;51.098;6.414;2022-08-20T08:08:00;19.30;99.90
3051;DHT22;1535;51.098;6.414;2022-08-20T08:10:28;19.10;99.90
3051;DHT22;1535;51.098;6.414;2022-08-20T08:12:58;19.10;99.90
3051;DHT22;1535;51.098;6.414;2022-08-20T08:15:28;19.10;99.90
3051;DHT22;1535;51.098;6.414;2022-08-20T08:17:59;19.50;99.90
3051;DHT22;1535;51.098;6.414;2022-08-20T08:20:27;19.70;99.90
3051;DHT22;1535;51.098;6.414;2022-08-20T08:22:54;19.70;99.90
3051;DHT22;1535;51.098;6.414;2022-08-20T08:25:23;19.80;99.90
3051;DHT22;1535;51.098;6.414;2022-08-20T08:27:50;20.00;99.90
3051;DHT22;1535;51.098;6.414;2022-08-20T08:30:17;19.70;99.90
3051;DHT22;1535;51.098;6.414;2022-08-20T08:32:45;19.60;99.90
3051;DHT22;1535;51.098;6.414;2022-08-20T08:35:30;19.90;99.90
3051;DHT22;1535;51.098;6.414;2022-08-20T08:37:57;19.90;99.90
3051;DHT22;1535;51.098;6.414;2022-08-20T08:40:29;19.90;99.90
3051;DHT22;1535;51.098;6.414;2022-08-20T08:42:58;20.00;99.90
3051;DHT22;1535;51.098;6.414;2022-08-20T08:45:31;20.20;99.90
3051;DHT22;1535;51.098;6.414;2022-08-20T08:48:00;20.10;99.90
3051;DHT22;1535;51.098;6.414;2022-08-20T08:50:30;20.10;99.90
3051;DHT22;1535;51.098;6.414;2022-08-20T08:52:59;20.00;99.90
3051;DHT22;1535;51.098;6.414;2022-08-20T08:55:29;20.00;99.90
3051;DHT22;1535;51.098;6.414;2022-08-20T08:57:59;20.10;99.90
3051;DHT22;1535;51.098;6.414;2022-08-20T09:00:27;20.10;99.90
3051;DHT22;1535;51.098;6.414;2022-08-20T09:02:58;20.20;99.90
3051;DHT22;1535;51.098;6.414;2022-08-20T09:05:30;20.30;99.90
3051;DHT22;1535;51.098;6.414;2022-08-20T09:08:00;20.50;99.90
3051;DHT22;1535;51.098;6.414;2022-08-20T09:10:29;20.20;99.90
3051;DHT22;1535;51.098;6.414;2022-08-20T09:12:56;20.30;99.90
3051;DHT22;1535;51.098;6.414;2022-08-20T09:15:26;20.40;99.90
3051;DHT22;1535;51.098;6.414;2022-08-20T09:17:53;20.60;99.90
3051;DHT22;1535;51.098;6.414;2022-08-20T09:20:20;20.70;99.90
3051;DHT22;1535;51.098;6.414;2022-08-20T09:22:47;21.00;99.90
3051;DHT22;1535;51.098;6.414;2022-08-20T09:25:14;21.10;99.90
3051;DHT22;1535;51.098;6.414;2022-08-20T09:27:43;21.10;99.90
3051;DHT22;1535;51.098;6.414;2022-08-20T09:30:11;21.10;99.90
3051;DHT22;1535;51.098;6.414;2022-08-20T09:32:39;21.30;99.90
3051;DHT22;1535;51.098;6.414;2022-08-20T09:35:06;21.40;99.90
3051;DHT22;1535;51.098;6.414;2022-08-20T09:37:34;21.40;99.90
3051;DHT22;1535;51.098;6.414;2022-08-20T09:40:01;21.50;99.90
3051;DHT22;1535;51.098;6.414;2022-08-20T09:42:30;21.60;99.90
3051;DHT22;1535;51.098;6.414;2022-08-20T09:44:59;21.90;99.90
3051;DHT22;1535;51.098;6.414;2022-08-20T09:47:26;21.90;99.90
3051;DHT22;1535;51.098;6.414;2022-08-20T09:49:53;22.00;99.90
3051;DHT22;1535;51.098;6.414;2022-08-20T09:52:22;21.80;99.90
3051;DHT22;1535;51.098;6.414;2022-08-20T09:54:50;21.90;99.90
3051;DHT22;1535;51.098;6.414;2022-08-20T09:57:18;21.80;99.90
3051;DHT22;1535;51.098;6.414;2022-08-20T09:59:49;21.60;99.90
3051;DHT22;1535;51.098;6.414;2022-08-20T10:02:19;21.70;99.90
3051;DHT22;1535;51.098;6.414;2022-08-20T10:04:46;21.90;99.90
3051;DHT22;1535;51.098;6.414;2022-08-20T10:07:13;21.90;99.90
3051;DHT22;1535;51.098;6.414;2022-08-20T10:09:40;21.90;99.90
3051;DHT22;1535;51.098;6.414;2022-08-20T10:12:07;21.90;99.90
3051;DHT22;1535;51.098;6.414;2022-08-20T10:14:34;21.80;99.90
3051;DHT22;1535;51.098;6.414;2022-08-20T10:17:01;21.80;99.90
3051;DHT22;1535;51.098;6.414;2022-08-20T10:19:30;22.00;99.90
3051;DHT22;1535;51.098;6.414;2022-08-20T10:21:57;21.80;99.90
3051;DHT22;1535;51.098;6.414;2022-08-20T10:24:25;21.70;99.90
3051;DHT22;1535;51.098;6.414;2022-08-20T10:26:54;21.90;99.90
3051;DHT22;1535;51.098;6.414;2022-08-20T10:29:21;22.10;99.90
3051;DHT22;1535;51.098;6.414;2022-08-20T10:31:48;22.10;99.90
3051;DHT22;1535;51.098;6.414;2022-08-20T10:34:15;22.40;99.90
3051;DHT22;1535;51.098;6.414;2022-08-20T10:36:44;22.50;99.90
3051;DHT22;1535;51.098;6.414;2022-08-20T10:39:11;22.50;99.90
3051;DHT22;1535;51.098;6.414;2022-08-20T10:41:38;22.50;99.90
3051;DHT22;1535;51.098;6.414;2022-08-20T10:44:06;22.60;99.90
3051;DHT22;1535;51.098;6.414;2022-08-20T10:46:33;22.70;99.90
3051;DHT22;1535;51.098;6.414;2022-08-20T10:49:00;22.60;99.90
3051;DHT22;1535;51.098;6.414;2022-08-20T10:51:27;22.80;99.90
3051;DHT22;1535;51.098;6.414;2022-08-20T10:53:56;22.70;99.90
3051;DHT22;1535;51.098;6.414;2022-08-20T10:56:23;22.80;99.90
3051;DHT22;1535;51.098;6.414;2022-08-20T10:58:50;22.50;99.90
3051;DHT22;1535;51.098;6.414;2022-08-20T11:01:16;22.60;99.90
3051;DHT22;1535;51.098;6.414;2022-08-20T11:03:44;22.70;99.90
3051;DHT22;1535;51.098;6.414;2022-08-20T11:06:11;22.70;99.90
3051;DHT22;1535;51.098;6.414;2022-08-20T11:08:38;22.80;99.90
3051;DHT22;1535;51.098;6.414;2022-08-20T11:11:06;23.10;99.90
3051;DHT22;1535;51.098;6.414;2022-08-20T11:13:33;23.40;99.90
3051;DHT22;1535;51.098;6.414;2022-08-20T11:16:02;23.80;99.90
3051;DHT22;1535;51.098;6.414;2022-08-20T11:18:29;24.90;99.90
3051;DHT22;1535;51.098;6.414;2022-08-20T11:20:57;25.80;99.90
3051;DHT22;1535;51.098;6.414;2022-08-20T11:23:24;25.90;99.90
3051;DHT22;1535;51.098;6.414;2022-08-20T11:25:54;26.00;99.90
3051;DHT22;1535;51.098;6.414;2022-08-20T11:28:22;25.30;99.90
3051;DHT22;1535;51.098;6.414;2022-08-20T11:30:49;26.30;99.90
3051;DHT22;1535;51.098;6.414;2022-08-20T11:33:16;25.90;99.90
3051;DHT22;1535;51.098;6.414;2022-08-20T11:35:43;25.00;99.90
3051;DHT22;1535;51.098;6.414;2022-08-20T11:38:11;25.00;99.90
3051;DHT22;1535;51.098;6.414;2022-08-20T11:40:37;24.50;99.90
3051;DHT22;1535;51.098;6.414;2022-08-20T11:43:05;24.00;99.90
3051;DHT22;1535;51.098;6.414;2022-08-20T11:45:33;24.10;99.90
3051;DHT22;1535;51.098;6.414;2022-08-20T11:48:00;24.30;99.90
3051;DHT22;1535;51.098;6.414;2022-08-20T11:50:26;24.50;99.90
3051;DHT22;1535;51.098;6.414;2022-08-20T11:52:53;24.60;99.90
3051;DHT22;1535;51.098;6.414;2022-08-20T11:55:20;25.60;99.90
3051;DHT22;1535;51.098;6.414;2022-08-20T11:57:47;26.50;99.90
3051;DHT22;1535;51.098;6.414;2022-08-20T12:00:17;27.30;99.90
3051;DHT22;1535;51.098;6.414;2022-08-20T12:02:46;27.70;99.90
3051;DHT22;1535;51.098;6.414;2022-08-20T12:05:16;28.20;99.90
3051;DHT22;1535;51.098;6.414;2022-08-20T12:07:44;28.50;99.90
3051;DHT22;1535;51.098;6.414;2022-08-20T12:10:11;28.70;99.90
3051;DHT22;1535;51.098;6.414;2022-08-20T12:12:38;28.90;99.90
3051;DHT22;1535;51.098;6.414;2022-08-20T12:15:07;29.40;99.90
3051;DHT22;1535;51.098;6.414;2022-08-20T12:17:35;29.60;99.90
3051;DHT22;1535;51.098;6.414;2022-08-20T12:20:06;29.10;99.90
3051;DHT22;1535;51.098;6.414;2022-08-20T12:22:33;29.00;99.90
3051;DHT22;1535;51.098;6.414;2022-08-20T12:25:00;29.60;99.90
3051;DHT22;1535;51.098;6.414;2022-08-20T12:27:28;30.10;99.90
3051;DHT22;1535;51.098;6.414;2022-08-20T12:29:58;30.00;99.90
3051;DHT22;1535;51.098;6.414;2022-08-20T12:32:28;30.40;99.90
3051;DHT22;1535;51.098;6.414;2022-08-20T12:34:56;30.50;97.80
3051;DHT22;1535;51.098;6.414;2022-08-20T12:37:26;30.70;97.80
3051;DHT22;1535;51.098;6.414;2022-08-20T12:39:56;30.30;95.60
3051;DHT22;1535;51.098;6.414;2022-08-20T12:42:24;30.10;94.50
3051;DHT22;1535;51.098;6.414;2022-08-20T12:44:50;30.20;96.50
3051;DHT22;1535;51.098;6.414;2022-08-20T12:47:19;30.30;94.50
3051;DHT22;1535;51.098;6.414;2022-08-20T12:49:47;30.20;94.10
3051;DHT22;1535;51.098;6.414;2022-08-20T12:52:15;30.30;94.30
3051;DHT22;1535;51.098;6.414;2022-08-20T12:54:45;30.30;94.80
3051;DHT22;1535;51.098;6.414;2022-08-20T12:57:13;30.70;93.60
3051;DHT22;1535;51.098;6.414;2022-08-20T12:59:40;30.60;94.20
3051;DHT22;1535;51.098;6.414;2022-08-20T13:02:07;30.60;91.90
3051;DHT22;1535;51.098;6.414;2022-08-20T13:04:34;30.90;91.50
3051;DHT22;1535;51.098;6.414;2022-08-20T13:07:02;30.80;90.80
3051;DHT22;1535;51.098;6.414;2022-08-20T13:09:29;30.90;91.00
3051;DHT22;1535;51.098;6.414;2022-08-20T13:11:57;30.60;86.30
3051;DHT22;1535;51.098;6.414;2022-08-20T13:14:24;30.60;89.10
3051;DHT22;1535;51.098;6.414;2022-08-20T13:16:55;31.20;85.00
3051;DHT22;1535;51.098;6.414;2022-08-20T13:19:23;30.80;78.80
3051;DHT22;1535;51.098;6.414;2022-08-20T13:21:50;30.90;82.50
3051;DHT22;1535;51.098;6.414;2022-08-20T13:24:17;30.80;83.50
3051;DHT22;1535;51.098;6.414;2022-08-20T13:26:44;30.90;81.30
3051;DHT22;1535;51.098;6.414;2022-08-20T13:29:13;31.30;77.90
3051;DHT22;1535;51.098;6.414;2022-08-20T13:31:40;31.10;78.60
3051;DHT22;1535;51.098;6.414;2022-08-20T13:34:07;31.20;75.90
3051;DHT22;1535;51.098;6.414;2022-08-20T13:36:34;31.60;75.50
3051;DHT22;1535;51.098;6.414;2022-08-20T13:39:02;31.10;73.10
3051;DHT22;1535;51.098;6.414;2022-08-20T13:41:30;31.20;72.50
3051;DHT22;1535;51.098;6.414;2022-08-20T13:43:56;31.00;72.60
3051;DHT22;1535;51.098;6.414;2022-08-20T13:46:24;30.90;71.90
3051;DHT22;1535;51.098;6.414;2022-08-20T13:48:51;31.50;71.50
3051;DHT22;1535;51.098;6.414;2022-08-20T13:51:18;31.50;69.40
3051;DHT22;1535;51.098;6.414;2022-08-20T13:53:45;31.80;67.80
3051;DHT22;1535;51.098;6.414;2022-08-20T13:56:12;32.30;69.10
3051;DHT22;1535;51.098;6.414;2022-08-20T13:58:39;32.00;67.00
3051;DHT22;1535;51.098;6.414;2022-08-20T14:01:06;31.70;70.50
3051;DHT22;1535;51.098;6.414;2022-08-20T14:03:35;31.00;72.10
3051;DHT22;1535;51.098;6.414;2022-08-20T14:06:02;30.80;70.00
3051;DHT22;1535;51.098;6.414;2022-08-20T14:08:29;30.90;70.50
3051;DHT22;1535;51.098;6.414;2022-08-20T14:10:57;30.70;70.60
3051;DHT22;1535;51.098;6.414;2022-08-20T14:13:25;30.80;69.60
3051;DHT22;1535;51.098;6.414;2022-08-20T14:15:52;31.40;69.00
3051;DHT22;1535;51.098;6.414;2022-08-20T14:18:20;31.60;69.80
3051;DHT22;1535;51.098;6.414;2022-08-20T14:20:48;31.50;71.80
3051;DHT22;1535;51.098;6.414;2022-08-20T14:23:15;32.10;66.80
3051;DHT22;1535;51.098;6.414;2022-08-20T14:25:44;32.20;66.10
3051;DHT22;1535;51.098;6.414;2022-08-20T14:28:13;32.20;65.90
3051;DHT22;1535;51.098;6.414;2022-08-20T14:30:41;31.80;67.50
3051;DHT22;1535;51.098;6.414;2022-08-20T14:33:08;31.80;65.00
3051;DHT22;1535;51.098;6.414;2022-08-20T14:35:35;32.20;62.70
3051;DHT22;1535;51.098;6.414;2022-08-20T14:38:03;32.70;61.30
3051;DHT22;1535;51.098;6.414;2022-08-20T14:40:30;32.60;63.80
3051;DHT22;1535;51.098;6.414;2022-08-20T14:42:57;31.90;62.80
3051;DHT22;1535;51.098;6.414;2022-08-20T14:45:24;32.00;61.50
3051;DHT22;1535;51.098;6.414;2022-08-20T14:47:53;32.60;61.30
3051;DHT22;1535;51.098;6.414;2022-08-20T14:50:24;32.70;58.60
3051;DHT22;1535;51.098;6.414;2022-08-20T14:52:51;32.60;57.90
3051;DHT22;1535;51.098;6.414;2022-08-20T14:55:22;32.00;58.20
3051;DHT22;1535;51.098;6.414;2022-08-20T14:57:50;32.50;56.30
3051;DHT22;1535;51.098;6.414;2022-08-20T15:00:20;32.30;54.00
3051;DHT22;1535;51.098;6.414;2022-08-20T15:02:48;32.10;54.90
3051;DHT22;1535;51.098;6.414;2022-08-20T15:05:15;31.70;54.00
3051;DHT22;1535;51.098;6.414;2022-08-20T15:07:44;32.20;53.80
3051;DHT22;1535;51.098;6.414;2022-08-20T15:10:16;31.80;52.10
3051;DHT22;1535;51.098;6.414;2022-08-20T15:12:45;31.60;52.60
3051;DHT22;1535;51.098;6.414;2022-08-20T15:15:14;31.10;53.60
3051;DHT22;1535;51.098;6.414;2022-08-20T15:17:42;31.30;56.70
3051;DHT22;1535;51.098;6.414;2022-08-20T15:20:10;30.80;57.00
3051;DHT22;1535;51.098;6.414;2022-08-20T15:22:38;30.70;57.90
3051;DHT22;1535;51.098;6.414;2022-08-20T15:25:06;30.70;59.00
3051;DHT22;1535;51.098;6.414;2022-08-20T15:27:34;30.70;58.80
3051;DHT22;1535;51.098;6.414;2022-08-20T15:30:05;30.90;58.20
3051;DHT22;1535;51.098;6.414;2022-08-20T15:32:32;30.00;58.20
3051;DHT22;1535;51.098;6.414;2022-08-20T15:34:59;29.20;61.30
3051;DHT22;1535;51.098;6.414;2022-08-20T15:37:26;28.80;62.40
3051;DHT22;1535;51.098;6.414;2022-08-20T15:39:52;28.80;63.40
3051;DHT22;1535;51.098;6.414;2022-08-20T15:42:22;28.90;63.70
3051;DHT22;1535;51.098;6.414;2022-08-20T15:44:49;29.20;65.20
3051;DHT22;1535;51.098;6.414;2022-08-20T15:47:24;29.80;60.30
3051;DHT22;1535;51.098;6.414;2022-08-20T15:50:01;29.60;60.50
3051;DHT22;1535;51.098;6.414;2022-08-20T15:52:32;29.80;61.80
3051;DHT22;1535;51.098;6.414;2022-08-20T15:55:12;29.80;61.20
3051;DHT22;1535;51.098;6.414;2022-08-20T15:57:51;29.60;63.50
3051;DHT22;1535;51.098;6.414;2022-08-20T16:00:21;29.60;64.90
3051;DHT22;1535;51.098;6.414;2022-08-20T16:03:14;29.90;61.70
3051;DHT22;1535;51.098;6.414;2022-08-20T16:05:50;30.70;61.30
3051;DHT22;1535;51.098;6.414;2022-08-20T16:08:33;31.20;60.90
3051;DHT22;1535;51.098;6.414;2022-08-20T16:11:10;31.40;59.30